Flight Track Log - Related Links

Times and Time Zones

All times are in EDT time to prevent confusion due to time zone crossing. See the N931FR flight status page for this flight to view local times or setup timezone preferences in your user account.

Time Position Orientation Groundspeed Altitude Reporting Facility
EDT Latitude Longitude Course Direction KTS MPH feet Rate Location/Type
Tue 07:33:00 PM 44.8833 -93.3167 230° Southwest 193 222 3,500  Level Minneapolis TRACON
Tue 07:33:53 PM 44.8478 -93.3772 230° Southwest 245 282 5,800 3,235 Climbing Minneapolis Center
Tue 07:34:55 PM 44.8036 -93.4567 232° Southwest 261 300 9,700 3,366 Climbing Minneapolis Center
Tue 07:35:56 PM 44.7561 -93.5403 231° Southwest 276 318 12,700 3,268 Climbing Minneapolis Center
Tue 07:36:58 PM 44.7061 -93.6289 232° Southwest 289 333 16,400 3,048 Climbing Minneapolis Center
Tue 07:38:00 PM 44.6581 -93.7133 231° Southwest 278 320 19,000 2,293 Climbing Minneapolis Center
Tue 07:39:01 PM 44.6056 -93.8067 232° Southwest 296 341 21,100 2,341 Climbing Minneapolis Center
Tue 07:40:03 PM 44.5394 -93.9286 233° Southwest 323 372 23,800 2,274 Climbing Minneapolis Center
Tue 07:41:05 PM 44.4844 -94.0342 234° Southwest 332 382 25,800 1,902 Climbing Minneapolis Center
Tue 07:42:06 PM 44.4269 -94.1433 234° Southwest 344 396 27,700 1,756 Climbing Minneapolis Center
Tue 07:43:08 PM 44.3683 -94.2542 234° Southwest 352 405 29,400 1,548 Climbing Minneapolis Center
Tue 07:44:10 PM 44.3089 -94.3675 234° Southwest 360 414 30,900 1,415 Climbing Minneapolis Center
Tue 07:45:11 PM 44.2464 -94.4828 233° Southwest 371 427 32,300 1,512 Climbing Minneapolis Center
Tue 07:46:13 PM 44.1719 -94.6219 233° Southwest 375 432 34,000 794 Climbing Minneapolis Center
Tue 07:47:27 PM 44.1197 -94.7186 233° Southwest 371 427 34,100 44 Climbing Minneapolis Center
Tue 07:48:29 PM 44.0333 -94.8800 233° Southwest 372 428 34,100  Level Minneapolis Center
Tue 07:49:30 PM 43.9711 -94.9944 233° Southwest 371 427 34,100  Level Minneapolis Center
Tue 07:50:32 PM 43.9081 -95.1103 233° Southwest 375 432 34,100  Level Minneapolis Center
Tue 07:51:33 PM 43.8450 -95.2244 233° Southwest 373 429 34,100  Level Minneapolis Center
Tue 07:52:35 PM 43.7814 -95.3394 233° Southwest 375 432 34,100 98 Level Minneapolis Center
Tue 07:53:36 PM 43.7303 -95.4311 232° Southwest 376 433 34,300 878 Climbing Minneapolis Center
Tue 07:54:38 PM 43.6556 -95.5667 233° Southwest 369 425 35,900 1,403 Climbing Minneapolis Center
Tue 07:55:40 PM 43.6069 -95.6933 242° Southwest 370 426 37,200 1,016 Climbing Minneapolis Center
Tue 07:56:42 PM 43.5517 -95.8450 243° Southwest 368 423 38,000 390 Climbing Minneapolis Center
Tue 07:57:43 PM 43.5061 -95.9725 244° Southwest 370 426 38,000  Level Minneapolis Center
Tue 07:58:45 PM 43.4694 -96.0722 243° Southwest 367 422 38,000  Level Minneapolis Center
Tue 07:59:47 PM 43.4147 -96.2233 244° Southwest 367 422 38,000  Level Minneapolis Center
Tue 08:00:48 PM 43.3686 -96.3503 243° Southwest 370 426 38,000  Level Minneapolis Center
Tue 08:01:49 PM 43.3306 -96.4497 242° Southwest 369 425 38,000  Level Minneapolis Center
Tue 08:02:51 PM 43.2753 -96.6008 243° Southwest 369 425 38,000  Level Minneapolis Center
Tue 08:03:53 PM 43.2278 -96.7247 242° Southwest 369 425 38,000  Level Minneapolis Center
Tue 08:04:55 PM 43.1814 -96.8531 244° Southwest 372 428 38,000  Level Minneapolis Center
Tue 08:05:56 PM 43.1247 -97.0019 242° Southwest 367 422 38,000  Level Minneapolis Center
Tue 08:06:58 PM 43.0781 -97.1256 243° Southwest 367 422 38,000  Level Minneapolis Center
Tue 08:07:59 PM 43.0317 -97.2475 243° Southwest 363 418 38,000  Level Minneapolis Center
Tue 08:09:01 PM 42.9858 -97.3694 243° Southwest 362 417 38,000  Level Minneapolis Center
Tue 08:10:02 PM 42.9397 -97.4875 242° Southwest 357 411 38,000  Level Minneapolis Center
Tue 08:11:04 PM 42.8947 -97.6078 243° Southwest 356 410 38,000  Level Minneapolis Center
Tue 08:12:05 PM 42.8475 -97.7272 242° Southwest 357 411 38,000  Level Minneapolis Center
Tue 08:13:07 PM 42.8019 -97.8461 242° Southwest 357 411 38,000  Level Minneapolis Center
Tue 08:14:20 PM 42.7456 -97.9878 242° Southwest 356 410 38,000  Level Minneapolis Center
Tue 08:15:22 PM 42.6894 -98.1294 242° Southwest 355 409 38,000  Level Minneapolis Center
Tue 08:16:24 PM 42.6439 -98.2478 242° Southwest 359 413 38,000  Level Minneapolis Center
Tue 08:17:25 PM 42.5986 -98.3664 243° Southwest 356 410 38,000  Level Minneapolis Center
Tue 08:18:27 PM 42.5514 -98.4836 241° Southwest 355 409 38,000  Level Minneapolis Center
Tue 08:19:28 PM 42.5050 -98.6003 242° Southwest 353 406 38,000  Level Minneapolis Center
Tue 08:20:30 PM 42.4572 -98.7158 241° Southwest 351 404 38,000  Level Minneapolis Center
Tue 08:21:31 PM 42.3964 -98.8528 239° Southwest 353 406 38,000  Level Minneapolis Center
Tue 08:22:33 PM 42.3453 -98.9678 239° Southwest 356 410 38,000  Level Minneapolis Center
Tue 08:23:34 PM 42.2994 -99.0844 242° Southwest 354 407 38,000  Level Minneapolis Center
Tue 08:24:36 PM 42.2556 -99.2039 244° Southwest 357 411 38,000  Level Minneapolis Center
Tue 08:25:38 PM 42.2136 -99.3239 245° Southwest 355 409 38,000  Level Minneapolis Center
Tue 08:26:38 PM 42.1694 -99.4431 243° Southwest 355 409 38,000  Level Denver Center
Tue 08:27:39 PM 42.1258 -99.5614 244° Southwest 354 407 38,000  Level Denver Center
Tue 08:28:41 PM 42.0822 -99.6789 243° Southwest 352 405 38,000  Level Denver Center
Tue 08:29:42 PM 42.0356 -99.8050 244° Southwest 351 404 38,000  Level Denver Center
Tue 08:31:47 PM 41.9419 -100.0542 243° Southwest 353 406 38,000  Level Minneapolis Center
Tue 08:32:49 PM 41.8989 -100.1703 244° Southwest 351 404 38,000  Level Minneapolis Center
Tue 08:33:48 PM 41.8528 -100.2900 243° Southwest 351 404 38,000  Level Denver Center
Tue 08:34:50 PM 41.8100 -100.4019 243° Southwest 353 406 38,000  Level Denver Center
Tue 08:35:51 PM 41.7606 -100.5325 243° Southwest 353 406 38,000  Level Denver Center
Tue 08:36:53 PM 41.7178 -100.6442 243° Southwest 352 405 38,000  Level Denver Center
Tue 08:37:54 PM 41.6681 -100.7761 243° Southwest 355 409 38,000  Level Denver Center
Tue 08:38:55 PM 41.6256 -100.8872 243° Southwest 354 407 38,000  Level Denver Center
Tue 08:39:57 PM 41.5822 -100.9994 243° Southwest 355 409 38,000  Level Denver Center
Tue 08:40:58 PM 41.5325 -101.1289 243° Southwest 354 407 38,000  Level Denver Center
Tue 08:42:00 PM 41.4892 -101.2397 242° Southwest 353 406 38,000  Level Denver Center
Tue 08:43:01 PM 41.4383 -101.3689 242° Southwest 354 407 38,000  Level Denver Center
Tue 08:44:03 PM 41.3950 -101.4792 242° Southwest 353 406 38,000  Level Denver Center
Tue 08:45:04 PM 41.3433 -101.6089 242° Southwest 354 407 38,000  Level Denver Center
Tue 08:46:05 PM 41.3003 -101.7194 243° Southwest 354 407 38,000  Level Denver Center
Tue 08:47:07 PM 41.2642 -101.8122 243° Southwest 354 407 38,000  Level Denver Center
Tue 08:48:08 PM 41.2036 -101.9606 242° Southwest 358 412 38,000  Level Denver Center
Tue 08:49:10 PM 41.1597 -102.0708 242° Southwest 356 410 38,000  Level Denver Center
Tue 08:50:11 PM 41.1083 -102.2006 242° Southwest 357 411 38,000  Level Denver Center
Tue 08:51:13 PM 41.0628 -102.3122 242° Southwest 359 413 38,000  Level Denver Center
Tue 08:52:14 PM 41.0169 -102.4231 241° Southwest 359 413 38,000  Level Denver Center
Tue 08:53:15 PM 40.9644 -102.5503 241° Southwest 354 407 38,000  Level Denver Center
Tue 08:54:17 PM 40.9203 -102.6606 242° Southwest 354 407 38,000  Level Denver Center
Tue 08:55:18 PM 40.8669 -102.7881 241° Southwest 355 409 38,000  Level Denver Center
Tue 08:56:20 PM 40.8211 -102.8981 241° Southwest 357 411 38,000  Level Denver Center
Tue 08:57:33 PM 40.7750 -103.0092 241° Southwest 357 411 38,000 -133 Level Denver Center
Tue 08:58:35 PM 40.7111 -103.1639 241° Southwest 357 411 37,700 -1,073 Descending Denver Center
Tue 08:59:36 PM 40.6633 -103.2800 242° Southwest 357 411 35,800 -2,607 Descending Denver Center
Tue 09:00:37 PM 40.6147 -103.3978 241° Southwest 363 418 32,400 -3,317 Descending Denver Center
Tue 09:01:39 PM 40.5631 -103.5183 241° Southwest 375 432 29,000 -2,927 Descending Denver Center
Tue 09:02:40 PM 40.5133 -103.6369 241° Southwest 369 425 26,400 -2,439 Descending Denver Center
Tue 09:03:42 PM 40.4656 -103.7500 241° Southwest 356 410 24,000 -2,488 Descending Denver Center
Tue 09:04:43 PM 40.4147 -103.8719 241° Southwest 350 403 21,300 -1,869 Descending Denver Center
Tue 09:05:44 PM 40.3700 -103.9742 240° Southwest 325 374 20,200 -1,024 Descending Denver Center
Tue 09:06:46 PM 40.3086 -104.0578 226° Southwest 326 375 19,200 -1,122 Descending Denver Center
Tue 09:07:47 PM 40.2392 -104.1308 219° Southwest 322 371 17,900 -2,000 Descending Denver Center
Tue 09:08:49 PM 40.1681 -104.2106 221° Southwest 318 366 15,100 -1,805 Descending Denver Center
Tue 09:09:50 PM 40.0983 -104.2853 219° Southwest 322 371 14,200 -541 Descending Denver Center
Tue 09:10:51 PM 40.0306 -104.3586 220° Southwest 317 365 14,000 -125 Descending Denver Center
Tue 09:11:26 PM 39.9833 -104.4000 214° Southwest 321 369 14,000  Level Denver TRACON
Tue 09:12:20 PM 39.9333 -104.4667 226° Southwest 272 313 14,000 -500 Level Denver TRACON
Tue 09:13:26 PM 39.8500 -104.5000 197° South 279 321 13,000 -1,111 Descending Denver TRACON
Tue 09:14:08 PM 39.8061 -104.5011 181° South 268 308 12,000 -2,039 Descending Denver Center
Tue 09:15:09 PM 39.7331 -104.5025 181° South 263 303 9,500 -1,805 Descending Denver Center
Tue 09:16:11 PM 39.6931 -104.5572 226° Southwest 253 291 8,300 -976 Descending Denver Center
Tue 09:17:12 PM 39.7222 -104.6397 295° West 226 260 7,500 -683 Descending Denver Center
Tue 09:18:14 PM 39.7561 -104.6614 334° Northwest 187 215 6,900 -774 Descending Denver Center
Tue 09:19:16 PM 39.8069 -104.6606 North 145 167 5,900 -732 Descending Denver Center
Tue 09:20:17 PM 39.8447 -104.6611 359° North 130 150 5,400 -492 Descending Denver Center

Login

Don't have an account? Register now (free) for customized features, flight alerts, and more!